Time;durP1;ratioP1;P1;durP2;ratioP2;P2;SDS_P1;SDS_P2;PMS_P1;PMS_P2;Temp;Humidity;BMP_temperature;BMP_pressure;BME280_temperature;BME280_humidity;BME280_pressure;Samples;Min_cycle;Max_cycle;Signal;HPM_P1;HPM_P2
2022/12/25 00:01:18;;;;;;;3.67;1.30;;;7.50;93.40;;;;;;5074182;28;20025;-67
2022/12/25 00:03:44;;;;;;;3.30;1.38;;;7.50;93.70;;;;;;5072792;28;20465;-67
2022/12/25 00:06:10;;;;;;;3.25;1.25;;;7.50;93.40;;;;;;5075240;28;20036;-68
2022/12/25 00:08:37;;;;;;;2.72;1.33;;;7.50;93.50;;;;;;5075087;28;20024;-68
2022/12/25 00:11:06;;;;;;;2.90;1.30;;;7.40;93.60;;;;;;5067278;28;20029;-68
2022/12/25 00:13:32;;;;;;;3.17;1.42;;;7.40;93.10;;;;;;5073984;28;20078;-68
2022/12/25 00:15:58;;;;;;;3.38;1.40;;;7.30;92.50;;;;;;5076045;28;20017;-68
2022/12/25 00:18:24;;;;;;;4.95;1.52;;;7.30;92.20;;;;;;5069224;28;20295;-70
2022/12/25 00:20:59;;;;;;;3.55;1.50;;;7.30;91.80;;;;;;5071840;28;20065;-69
2022/12/25 00:23:25;;;;;;;4.95;1.70;;;7.30;91.20;;;;;;5069847;28;20054;-69
2022/12/25 00:25:52;;;;;;;4.70;2.20;;;7.30;91.60;;;;;;5074440;28;20024;-70
2022/12/25 00:28:19;;;;;;;2.72;1.40;;;7.50;93.00;;;;;;5070161;28;20024;-70
2022/12/25 00:30:44;;;;;;;4.43;1.75;;;7.60;93.70;;;;;;5066454;28;20031;-70
2022/12/25 00:33:10;;;;;;;3.45;1.58;;;7.70;94.20;;;;;;5068540;28;20029;-69
2022/12/25 00:35:36;;;;;;;6.75;2.40;;;7.70;94.90;;;;;;5071537;28;20149;-69
2022/12/25 00:38:01;;;;;;;3.60;1.40;;;7.80;95.40;;;;;;5075509;28;20081;-69
2022/12/25 00:40:27;;;;;;;4.18;1.60;;;7.80;95.60;;;;;;5073532;28;20120;-69
2022/12/25 00:42:52;;;;;;;4.75;1.63;;;7.90;96.10;;;;;;5074233;28;20480;-69
2022/12/25 00:45:18;;;;;;;3.17;1.45;;;7.90;95.90;;;;;;5073521;28;20107;-70
2022/12/25 00:47:44;;;;;;;5.00;1.60;;;7.90;95.80;;;;;;5075787;28;20742;-70
2022/12/25 00:50:10;;;;;;;3.28;1.45;;;7.90;95.60;;;;;;5071990;28;20448;-69
2022/12/25 00:52:36;;;;;;;3.65;1.40;;;7.90;95.90;;;;;;5075549;28;20035;-69
2022/12/25 00:55:01;;;;;;;3.75;1.50;;;8.00;96.80;;;;;;5073921;28;20021;-69
2022/12/25 00:57:27;;;;;;;4.35;1.60;;;8.10;97.40;;;;;;5072306;28;20035;-69
2022/12/25 00:59:53;;;;;;;3.20;1.60;;;8.10;97.60;;;;;;5073133;28;20102;-69
2022/12/25 01:02:24;;;;;;;3.35;1.30;;;8.10;97.30;;;;;;5070447;28;20040;-69
2022/12/25 01:04:54;;;;;;;3.33;1.35;;;8.10;97.00;;;;;;5063363;28;20101;-70
2022/12/25 01:07:21;;;;;;;3.28;1.27;;;8.10;97.50;;;;;;5047951;28;20028;-70
2022/12/25 01:12:34;;;;;;;5.63;1.58;;;8.10;97.30;;;;;;5067057;28;20075;-69
2022/12/25 01:15:11;;;;;;;3.00;1.30;;;8.10;96.90;;;;;;5067816;28;20401;-68
2022/12/25 01:17:36;;;;;;;3.50;1.38;;;8.10;96.70;;;;;;5060487;28;20352;-69
2022/12/25 01:20:02;;;;;;;2.55;1.30;;;8.10;96.80;;;;;;5067551;28;20020;-69
2022/12/25 01:22:29;;;;;;;4.68;1.50;;;8.10;96.60;;;;;;5061139;28;20025;-69
2022/12/25 01:24:54;;;;;;;3.08;1.33;;;8.20;97.30;;;;;;5064566;28;20035;-68
2022/12/25 01:27:21;;;;;;;3.08;1.20;;;8.20;97.40;;;;;;5050284;28;20032;-70
2022/12/25 01:29:46;;;;;;;3.55;1.42;;;8.20;97.20;;;;;;5049164;28;20047;-69
2022/12/25 01:32:12;;;;;;;2.58;1.30;;;8.20;97.20;;;;;;5059726;28;20098;-68
2022/12/25 01:34:38;;;;;;;2.67;1.20;;;8.20;96.80;;;;;;5062948;28;20414;-69
2022/12/25 01:37:03;;;;;;;5.13;1.65;;;8.20;96.70;;;;;;5071548;28;20024;-68
2022/12/25 01:39:29;;;;;;;2.55;1.13;;;8.20;97.00;;;;;;5067683;28;20052;-68
2022/12/25 01:41:55;;;;;;;3.22;1.30;;;8.20;97.10;;;;;;5053364;28;20302;-69
2022/12/25 01:44:35;;;;;;;3.25;1.40;;;8.30;96.70;;;;;;5074211;28;20036;-69
2022/12/25 01:47:05;;;;;;;2.85;1.45;;;8.30;97.20;;;;;;5074338;28;20025;-69
2022/12/25 01:49:35;;;;;;;4.82;1.73;;;8.20;97.20;;;;;;5067960;28;20054;-69
2022/12/25 01:52:24;;;;;;;3.38;1.33;;;8.30;97.10;;;;;;5075286;28;20128;-70
2022/12/25 01:54:55;;;;;;;3.45;1.40;;;8.30;97.60;;;;;;5071573;28;20029;-69
2022/12/25 01:57:25;;;;;;;3.72;1.50;;;8.30;96.90;;;;;;5050436;28;20021;-69
2022/12/25 01:59:51;;;;;;;3.55;1.52;;;8.20;97.20;;;;;;5072255;28;20041;-69
2022/12/25 02:02:17;;;;;;;3.90;1.30;;;8.20;97.00;;;;;;5075144;28;20070;-69
2022/12/25 02:04:54;;;;;;;2.83;1.27;;;8.20;96.80;;;;;;5073849;28;20025;-69
2022/12/25 02:07:23;;;;;;;3.80;1.30;;;8.20;96.30;;;;;;5073837;28;20452;-70
2022/12/25 02:09:49;;;;;;;3.42;1.40;;;8.10;96.10;;;;;;5063891;28;20024;-69
2022/12/25 02:12:40;;;;;;;3.58;1.50;;;8.10;95.90;;;;;;5072191;28;20306;-69
2022/12/25 02:15:11;;;;;;;3.85;1.40;;;8.20;96.00;;;;;;5074637;28;20063;-70
2022/12/25 02:17:49;;;;;;;3.90;1.67;;;8.20;95.90;;;;;;5073833;28;20027;-70
2022/12/25 02:20:40;;;;;;;3.35;1.45;;;8.20;96.00;;;;;;5073983;28;20024;-69
2022/12/25 02:23:24;;;;;;;2.75;1.38;;;8.20;96.00;;;;;;5074715;28;20332;-69
2022/12/25 02:26:16;;;;;;;2.53;1.35;;;8.20;95.60;;;;;;5074626;28;20370;-69
2022/12/25 02:29:14;;;;;;;3.45;1.60;;;8.20;94.70;;;;;;5068514;28;20036;-69
2022/12/25 02:31:48;;;;;;;2.88;1.50;;;8.20;95.20;;;;;;5074674;28;20024;-68
2022/12/25 02:34:14;;;;;;;;;;;8.20;94.80;;;;;;5066293;28;20090;-68
2022/12/25 02:36:50;;;;;;;2.88;1.38;;;8.20;94.90;;;;;;5075248;28;19908;-69
2022/12/25 02:42:16;;;;;;;;;;;8.10;94.70;;;;;;5075809;28;20020;-70
2022/12/25 03:07:16;;;;;;;3.65;1.20;;;8.20;93.00;;;;;;5074621;28;20034;-69
2022/12/25 03:12:54;;;;;;;2.53;1.30;;;8.10;92.50;;;;;;5058982;28;20373;-68
2022/12/25 03:18:10;;;;;;;3.08;1.20;;;8.20;92.10;;;;;;5078258;28;20102;-70
2022/12/25 03:28:56;;;;;;;3.17;1.20;;;8.10;92.00;;;;;;5064264;28;20145;-70
2022/12/25 03:31:27;;;;;;;3.13;1.42;;;8.10;90.80;;;;;;5065262;28;20129;-69
2022/12/25 04:38:14;;;;;;;3.45;1.67;;;8.80;94.30;;;;;;5062149;28;20059;-69
2022/12/25 04:40:40;;;;;;;3.08;1.20;;;8.90;94.70;;;;;;5075400;28;20060;-69
2022/12/25 04:43:06;;;;;;;2.40;1.25;;;9.00;95.30;;;;;;5057154;28;20024;-70
2022/12/25 04:45:32;;;;;;;3.05;1.30;;;9.00;95.80;;;;;;5074525;28;20363;-69
2022/12/25 04:47:59;;;;;;;2.85;1.40;;;9.10;96.10;;;;;;5075521;28;20032;-69
2022/12/25 04:50:34;;;;;;;2.50;1.35;;;9.10;96.40;;;;;;5071642;28;20020;-69
2022/12/25 04:52:59;;;;;;;2.75;1.20;;;9.20;96.40;;;;;;5074663;28;20107;-69
2022/12/25 04:55:25;;;;;;;2.08;1.15;;;9.20;96.90;;;;;;5074560;28;20104;-71
2022/12/25 04:57:50;;;;;;;2.08;1.13;;;9.20;96.80;;;;;;5076039;28;20028;-69
2022/12/25 05:00:16;;;;;;;3.13;1.33;;;9.30;97.30;;;;;;5072407;28;20025;-70
2022/12/25 05:02:42;;;;;;;4.07;1.30;;;9.30;97.10;;;;;;5075351;28;20021;-70
2022/12/25 05:05:07;;;;;;;3.67;1.45;;;9.30;97.40;;;;;;5072854;28;20306;-69
2022/12/25 05:07:33;;;;;;;2.47;1.15;;;9.40;97.70;;;;;;5074943;28;20110;-69
2022/12/25 05:09:58;;;;;;;3.17;1.30;;;9.50;98.00;;;;;;5072318;28;20029;-69
2022/12/25 05:12:24;;;;;;;3.47;1.20;;;9.50;98.00;;;;;;5077018;28;20031;-69
2022/12/25 05:14:49;;;;;;;2.15;1.08;;;9.50;97.90;;;;;;5075395;28;20437;-69
2022/12/25 05:17:15;;;;;;;1.60;1.00;;;9.50;98.00;;;;;;5075814;28;20032;-69
2022/12/25 05:19:41;;;;;;;2.53;1.23;;;9.50;98.00;;;;;;5073263;28;20025;-69
2022/12/25 05:22:10;;;;;;;2.72;1.20;;;9.50;98.00;;;;;;5075654;28;20302;-69
2022/12/25 05:24:36;;;;;;;2.58;1.30;;;9.60;98.00;;;;;;5075892;28;20055;-69
2022/12/25 05:27:01;;;;;;;2.30;1.27;;;9.60;98.00;;;;;;5075576;28;20413;-69
2022/12/25 05:29:27;;;;;;;2.58;1.20;;;9.60;98.00;;;;;;5076478;28;20376;-69
2022/12/25 05:31:52;;;;;;;2.25;1.10;;;9.60;98.00;;;;;;5075161;28;20032;-69
2022/12/25 05:34:18;;;;;;;4.25;1.50;;;9.50;98.00;;;;;;5072332;28;20029;-71
2022/12/25 05:36:43;;;;;;;3.53;1.40;;;9.60;98.00;;;;;;5074821;28;20036;-70
2022/12/25 05:39:09;;;;;;;2.65;1.38;;;9.70;98.00;;;;;;5074315;28;20020;-70
2022/12/25 05:41:34;;;;;;;3.60;1.48;;;9.80;98.00;;;;;;5058415;28;20028;-69
2022/12/25 05:44:00;;;;;;;2.95;1.42;;;9.80;98.00;;;;;;5058382;28;20035;-70
2022/12/25 05:46:25;;;;;;;4.28;1.60;;;9.90;98.00;;;;;;5075881;28;20033;-70
2022/12/25 05:48:51;;;;;;;6.35;2.25;;;10.00;98.00;;;;;;5074299;28;20694;-69
2022/12/25 05:51:19;;;;;;;3.35;1.50;;;10.00;98.00;;;;;;5058547;28;20052;-69
2022/12/25 05:53:45;;;;;;;2.92;1.33;;;10.00;98.00;;;;;;5076082;28;20032;-70
2022/12/25 05:56:11;;;;;;;4.93;1.65;;;10.00;98.00;;;;;;5075920;28;20409;-70
2022/12/25 05:58:37;;;;;;;4.00;1.40;;;10.10;98.00;;;;;;5074546;28;20464;-69
2022/12/25 06:01:10;;;;;;;2.67;1.50;;;10.10;98.00;;;;;;5055167;28;20024;-69
2022/12/25 06:03:35;;;;;;;4.15;1.70;;;10.20;98.00;;;;;;5071947;28;20051;-69
2022/12/25 06:06:02;;;;;;;3.45;1.35;;;10.20;98.00;;;;;;5068052;28;20410;-70
2022/12/25 06:08:28;;;;;;;5.72;2.28;;;10.20;98.00;;;;;;5071124;28;20024;-69
2022/12/25 06:10:53;;;;;;;4.45;1.80;;;10.30;98.00;;;;;;5061774;28;20440;-69
2022/12/25 06:13:19;;;;;;;3.90;1.70;;;10.30;98.00;;;;;;5075755;28;20051;-69
2022/12/25 06:15:44;;;;;;;4.40;1.63;;;10.30;98.00;;;;;;5073693;28;20111;-70
2022/12/25 06:18:10;;;;;;;3.22;1.83;;;10.40;98.00;;;;;;5074255;28;20016;-69
2022/12/25 06:20:38;;;;;;;5.28;1.90;;;10.50;98.00;;;;;;5074318;28;20020;-69
2022/12/25 06:23:04;;;;;;;3.63;1.75;;;10.40;98.00;;;;;;5073728;28;20037;-69
2022/12/25 06:25:30;;;;;;;6.10;2.10;;;10.40;98.00;;;;;;5072490;28;20037;-69
2022/12/25 06:27:55;;;;;;;3.75;1.45;;;10.40;98.00;;;;;;5072467;28;20029;-69
2022/12/25 06:30:21;;;;;;;3.30;1.70;;;10.30;98.00;;;;;;5072670;28;20417;-69
2022/12/25 06:32:46;;;;;;;5.10;1.60;;;10.30;98.00;;;;;;5073284;28;20029;-69
2022/12/25 06:35:12;;;;;;;3.70;1.67;;;10.50;98.00;;;;;;5064224;28;20048;-69
2022/12/25 06:37:37;;;;;;;2.90;1.52;;;10.50;98.00;;;;;;5074288;28;20048;-68
2022/12/25 06:40:04;;;;;;;3.88;1.70;;;10.40;98.00;;;;;;5075340;28;20021;-69
2022/12/25 06:42:29;;;;;;;4.85;1.83;;;10.40;98.00;;;;;;5075464;28;20028;-69
2022/12/25 06:45:00;;;;;;;3.45;1.52;;;10.40;98.00;;;;;;5075349;28;20029;-69
2022/12/25 06:47:26;;;;;;;5.00;1.70;;;10.40;98.00;;;;;;5075301;28;20017;-69
2022/12/25 06:49:52;;;;;;;4.38;1.83;;;10.30;98.00;;;;;;5074139;28;20024;-69
2022/12/25 06:52:17;;;;;;;4.25;1.88;;;10.30;98.00;;;;;;5074300;28;20103;-69
2022/12/25 06:54:43;;;;;;;3.60;1.80;;;10.30;98.00;;;;;;5069870;28;20087;-69
2022/12/25 06:57:08;;;;;;;4.35;2.20;;;10.20;98.00;;;;;;5075178;28;20037;-69
2022/12/25 06:59:34;;;;;;;4.35;2.08;;;10.20;98.00;;;;;;5075066;28;20051;-69
2022/12/25 07:01:59;;;;;;;4.15;2.20;;;10.20;98.00;;;;;;5058500;28;20044;-69
2022/12/25 07:04:36;;;;;;;4.30;2.05;;;10.20;98.00;;;;;;5067940;28;20036;-69
2022/12/25 07:07:02;;;;;;;4.55;2.45;;;10.20;98.00;;;;;;5062141;28;20437;-70
2022/12/25 07:09:28;;;;;;;4.57;2.40;;;10.20;98.00;;;;;;5069998;28;20059;-70
2022/12/25 07:11:53;;;;;;;4.50;2.40;;;10.20;98.00;;;;;;5069374;28;20032;-69
2022/12/25 07:14:22;;;;;;;5.43;2.42;;;10.20;98.00;;;;;;5072267;28;20113;-69
2022/12/25 07:16:48;;;;;;;4.32;2.45;;;10.20;98.00;;;;;;5073106;28;20032;-70
2022/12/25 07:19:14;;;;;;;4.95;2.78;;;10.20;98.00;;;;;;5064698;28;20067;-69
2022/12/25 07:21:39;;;;;;;4.50;2.60;;;10.10;98.00;;;;;;5071942;28;20372;-70
2022/12/25 07:24:05;;;;;;;5.72;2.90;;;10.10;98.00;;;;;;5071412;28;20081;-70
2022/12/25 07:26:31;;;;;;;4.97;2.70;;;10.00;98.00;;;;;;5072680;28;20119;-70
2022/12/25 07:28:57;;;;;;;4.88;2.53;;;10.00;98.00;;;;;;5073842;28;20025;-69
2022/12/25 07:31:25;;;;;;;5.45;2.60;;;10.00;98.00;;;;;;5073646;28;20170;-70
2022/12/25 07:33:54;;;;;;;7.57;3.17;;;9.90;98.00;;;;;;5066932;28;20029;-69
2022/12/25 07:36:19;;;;;;;7.00;2.85;;;9.90;98.00;;;;;;5073674;28;20060;-69
2022/12/25 07:38:48;;;;;;;5.03;2.70;;;9.90;98.00;;;;;;5069985;28;20052;-69
2022/12/25 07:41:14;;;;;;;5.90;3.08;;;9.90;98.00;;;;;;5076873;28;20352;-68
2022/12/25 07:43:40;;;;;;;6.13;2.88;;;9.90;98.00;;;;;;5075328;28;20024;-70
2022/12/25 07:46:05;;;;;;;6.85;3.15;;;10.00;98.00;;;;;;5077790;28;20042;-69
2022/12/25 07:48:31;;;;;;;6.50;3.40;;;10.00;98.00;;;;;;5073209;28;20058;-69
2022/12/25 07:51:00;;;;;;;6.60;3.55;;;9.90;98.00;;;;;;5074407;28;20024;-69
2022/12/25 07:53:27;;;;;;;5.05;2.72;;;9.90;98.00;;;;;;5078426;28;20441;-70
2022/12/25 07:56:01;;;;;;;4.55;2.58;;;10.10;98.00;;;;;;5075594;28;20029;-69
2022/12/25 07:58:28;;;;;;;5.88;2.78;;;10.10;98.00;;;;;;5075408;28;20037;-69
2022/12/25 08:00:53;;;;;;;6.43;2.67;;;10.30;98.00;;;;;;5074195;28;20082;-70
2022/12/25 08:03:19;;;;;;;6.43;2.20;;;10.50;98.00;;;;;;5076041;28;20836;-69
2022/12/25 08:05:45;;;;;;;4.55;2.40;;;10.60;98.00;;;;;;5074099;28;20367;-69
2022/12/25 08:08:11;;;;;;;5.03;2.50;;;10.60;98.00;;;;;;5054548;28;20124;-69
2022/12/25 08:10:36;;;;;;;5.55;2.70;;;10.60;98.00;;;;;;5073296;28;20041;-68
2022/12/25 08:13:02;;;;;;;5.28;2.10;;;10.50;98.00;;;;;;5075818;28;20036;-69
2022/12/25 08:15:29;;;;;;;5.85;2.60;;;10.50;98.00;;;;;;5075254;28;20016;-69
2022/12/25 08:17:55;;;;;;;4.32;2.00;;;10.60;98.00;;;;;;5077786;28;20420;-69
2022/12/25 08:20:20;;;;;;;5.90;2.30;;;10.70;98.00;;;;;;5072950;28;20029;-69
2022/12/25 08:22:46;;;;;;;4.43;2.00;;;10.90;98.00;;;;;;5075356;28;20017;-69
2022/12/25 08:25:12;;;;;;;4.25;2.10;;;11.00;98.00;;;;;;5073200;28;20063;-69
2022/12/25 08:27:40;;;;;;;5.53;2.63;;;11.00;98.00;;;;;;5057591;28;20362;-71
2022/12/25 08:30:06;;;;;;;4.40;2.17;;;10.90;98.00;;;;;;5073053;28;20056;-71
2022/12/25 08:32:32;;;;;;;4.75;1.98;;;10.90;98.00;;;;;;5073345;28;20500;-69
2022/12/25 08:34:58;;;;;;;4.68;1.85;;;11.10;98.00;;;;;;5069250;28;20036;-69
2022/12/25 08:37:24;;;;;;;4.18;1.90;;;11.40;98.00;;;;;;5073982;28;20089;-70
2022/12/25 08:39:49;;;;;;;6.18;1.92;;;11.90;98.00;;;;;;5075027;28;20362;-70
2022/12/25 08:42:15;;;;;;;4.72;1.92;;;12.20;98.00;;;;;;5072921;28;20107;-68
2022/12/25 08:44:41;;;;;;;3.78;1.70;;;12.30;97.70;;;;;;5056415;28;20334;-68
2022/12/25 08:47:07;;;;;;;3.88;1.77;;;12.40;97.50;;;;;;5074983;28;20036;-68
2022/12/25 08:49:33;;;;;;;3.28;1.60;;;12.90;96.70;;;;;;5075258;28;20358;-68
2022/12/25 08:51:58;;;;;;;4.00;1.52;;;13.50;95.00;;;;;;5074921;28;20056;-68
2022/12/25 08:54:24;;;;;;;3.33;1.70;;;14.00;93.00;;;;;;5071661;28;20509;-68
2022/12/25 08:56:51;;;;;;;5.63;1.80;;;14.20;91.80;;;;;;5073912;28;20047;-67
2022/12/25 08:59:16;;;;;;;4.82;1.60;;;14.40;91.40;;;;;;5071764;28;20368;-69
2022/12/25 09:01:42;;;;;;;3.75;1.60;;;14.70;90.60;;;;;;5066260;28;20031;-70
2022/12/25 09:04:07;;;;;;;2.78;1.38;;;14.80;90.30;;;;;;5050174;28;20520;-70
2022/12/25 09:06:33;;;;;;;3.30;1.50;;;14.60;90.30;;;;;;5074819;28;20302;-70
2022/12/25 09:08:58;;;;;;;3.72;1.40;;;14.60;91.30;;;;;;5070337;28;20043;-70
2022/12/25 09:11:24;;;;;;;6.57;1.55;;;14.60;90.40;;;;;;5072475;28;20043;-69
2022/12/25 09:13:49;;;;;;;3.75;1.42;;;14.80;90.00;;;;;;5073533;28;20028;-70
2022/12/25 09:16:19;;;;;;;4.65;1.38;;;15.20;88.90;;;;;;5073972;28;20025;-70
2022/12/25 09:18:44;;;;;;;3.53;1.30;;;15.30;89.00;;;;;;5070910;28;20016;-70
2022/12/25 09:21:12;;;;;;;2.72;1.30;;;15.50;87.90;;;;;;5075549;28;20497;-70
2022/12/25 09:23:38;;;;;;;4.03;1.58;;;15.80;88.20;;;;;;5069880;28;20479;-69
2022/12/25 09:26:06;;;;;;;2.38;1.20;;;16.10;86.80;;;;;;5073782;28;20501;-70
2022/12/25 09:28:32;;;;;;;5.00;1.65;;;16.20;87.10;;;;;;5069690;28;20498;-69
2022/12/25 09:30:58;;;;;;;3.67;1.63;;;16.00;86.10;;;;;;5050037;28;20039;-69
2022/12/25 09:33:23;;;;;;;5.03;1.38;;;15.70;86.40;;;;;;5048024;28;21466;-69
2022/12/25 09:36:07;;;;;;;3.33;1.17;;;15.40;87.30;;;;;;5062839;28;20028;-69
2022/12/25 09:38:34;;;;;;;3.22;1.48;;;15.00;88.50;;;;;;5068293;28;20099;-70
2022/12/25 09:41:24;;;;;;;2.90;1.38;;;14.80;88.60;;;;;;5068270;28;20041;-69
2022/12/25 09:44:02;;;;;;;5.47;1.58;;;14.80;89.40;;;;;;5067006;28;20418;-69
2022/12/25 09:46:36;;;;;;;3.35;1.30;;;14.70;89.80;;;;;;5063899;28;20416;-69
2022/12/25 09:49:40;;;;;;;3.70;1.52;;;14.90;89.20;;;;;;5067010;28;20033;-69
2022/12/25 09:52:36;;;;;;;2.55;1.17;;;15.10;88.90;;;;;;5049198;28;20021;-68
2022/12/25 09:55:11;;;;;;;3.50;1.45;;;15.50;88.30;;;;;;5069659;28;20033;-69
2022/12/25 09:57:37;;;;;;;4.63;1.50;;;15.80;87.40;;;;;;5070221;28;20104;-69
2022/12/25 10:00:03;;;;;;;5.00;1.75;;;16.00;87.10;;;;;;5064139;28;20119;-69
2022/12/25 10:02:41;;;;;;;3.58;1.35;;;16.30;86.10;;;;;;5067710;28;20082;-70
2022/12/25 10:05:16;;;;;;;3.25;1.17;;;16.70;85.80;;;;;;5062893;28;20489;-70
2022/12/25 10:07:57;;;;;;;3.60;1.20;;;16.90;84.90;;;;;;5066683;28;20034;-69
2022/12/25 10:10:37;;;;;;;3.17;1.25;;;17.20;83.60;;;;;;5063889;28;20381;-70
2022/12/25 10:13:18;;;;;;;3.42;1.30;;;17.50;83.20;;;;;;5058714;28;20687;-69
2022/12/25 10:15:54;;;;;;;2.90;1.30;;;17.70;82.40;;;;;;5063508;28;20025;-70
2022/12/25 10:18:59;;;;;;;3.05;1.02;;;17.90;81.90;;;;;;5067392;28;20912;-70
2022/12/25 10:21:26;;;;;;;3.58;1.30;;;18.00;80.70;;;;;;5057042;28;20045;-69
2022/12/25 10:24:04;;;;;;;2.50;1.10;;;17.90;82.10;;;;;;5067986;28;20445;-70
2022/12/25 10:26:31;;;;;;;2.58;1.30;;;17.50;80.90;;;;;;5072785;28;20033;-70
2022/12/25 10:28:59;;;;;;;2.85;1.10;;;17.20;82.80;;;;;;5072945;28;20409;-69
2022/12/25 10:31:28;;;;;;;3.03;1.10;;;17.10;82.40;;;;;;5070969;28;20033;-69
2022/12/25 10:33:54;;;;;;;2.10;0.98;;;16.60;82.60;;;;;;5069303;28;20032;-69
2022/12/25 10:36:22;;;;;;;3.47;1.13;;;16.30;84.00;;;;;;5071169;28;20035;-68
2022/12/25 10:38:48;;;;;;;2.10;1.00;;;16.30;84.60;;;;;;5064083;28;20372;-69
2022/12/25 10:41:33;;;;;;;2.38;1.23;;;16.40;83.60;;;;;;5068158;28;20029;-70
2022/12/25 10:43:59;;;;;;;2.45;1.00;;;16.30;84.00;;;;;;5066422;28;20111;-70
2022/12/25 10:46:27;;;;;;;3.05;1.20;;;16.20;84.80;;;;;;5069433;28;20108;-69
2022/12/25 10:49:01;;;;;;;2.75;1.20;;;16.10;84.30;;;;;;5068853;28;20358;-70
2022/12/25 10:51:32;;;;;;;3.20;1.20;;;15.90;85.10;;;;;;5067780;28;20052;-70
2022/12/25 10:54:00;;;;;;;3.58;1.02;;;15.80;85.50;;;;;;5072542;28;20310;-70
2022/12/25 10:56:25;;;;;;;3.85;1.27;;;15.80;85.40;;;;;;5068117;28;20040;-70
2022/12/25 10:59:06;;;;;;;3.50;1.10;;;15.70;86.10;;;;;;5066187;28;20048;-70
2022/12/25 11:01:32;;;;;;;3.03;1.20;;;15.70;86.10;;;;;;5073058;28;20044;-70
2022/12/25 11:03:57;;;;;;;2.63;1.30;;;15.80;87.20;;;;;;5069916;28;20107;-70
2022/12/25 11:06:26;;;;;;;3.08;1.30;;;16.20;85.40;;;;;;5070093;28;20033;-70
2022/12/25 11:09:02;;;;;;;2.40;1.00;;;16.70;85.10;;;;;;5067656;28;20024;-70
2022/12/25 11:11:29;;;;;;;2.33;1.10;;;16.90;83.10;;;;;;5072397;28;20486;-69
2022/12/25 11:14:00;;;;;;;2.15;1.00;;;17.00;83.00;;;;;;5073899;28;20054;-69
2022/12/25 11:16:27;;;;;;;3.88;1.20;;;16.80;83.30;;;;;;5072101;28;20111;-68
2022/12/25 11:18:53;;;;;;;2.85;1.10;;;16.40;83.40;;;;;;5072739;28;20059;-68
2022/12/25 11:21:29;;;;;;;3.72;1.30;;;16.00;85.10;;;;;;5073975;28;20051;-68
2022/12/25 11:23:59;;;;;;;2.50;1.20;;;16.00;85.50;;;;;;5067872;28;20268;-70
2022/12/25 11:26:27;;;;;;;3.80;1.60;;;16.30;85.60;;;;;;5077646;28;20024;-69
2022/12/25 11:28:57;;;;;;;3.90;1.25;;;16.40;85.40;;;;;;5067103;28;20313;-67
2022/12/25 11:31:36;;;;;;;1.98;1.00;;;16.60;85.10;;;;;;5075975;28;20108;-68
2022/12/25 11:34:27;;;;;;;3.72;1.10;;;17.00;84.40;;;;;;5038946;28;20032;-69
2022/12/25 11:36:53;;;;;;;3.15;1.00;;;17.40;83.60;;;;;;5066038;28;20115;-69
2022/12/25 11:39:29;;;;;;;1.90;0.90;;;17.30;82.80;;;;;;5072122;28;20124;-70
2022/12/25 11:42:08;;;;;;;2.55;1.10;;;17.30;82.50;;;;;;5051012;28;20386;-68
2022/12/25 11:44:55;;;;;;;2.08;1.00;;;17.60;81.90;;;;;;5074292;28;20389;-70
2022/12/25 11:47:31;;;;;;;1.70;0.82;;;17.80;82.30;;;;;;5072235;28;20086;-69
2022/12/25 11:50:11;;;;;;;1.95;0.80;;;17.90;81.10;;;;;;5048221;28;20029;-69
2022/12/25 11:52:39;;;;;;;3.63;1.20;;;18.10;80.40;;;;;;5062320;28;20103;-69
2022/12/25 11:55:16;;;;;;;2.60;1.00;;;18.40;79.80;;;;;;5070405;28;20021;-69
2022/12/25 11:57:46;;;;;;;2.10;1.05;;;18.30;79.00;;;;;;5055343;28;20027;-69
2022/12/25 12:00:14;;;;;;;2.55;1.20;;;17.60;81.40;;;;;;5056089;28;20449;-69
2022/12/25 12:03:12;;;;;;;3.05;1.25;;;17.00;82.80;;;;;;5038471;28;20070;-69
2022/12/25 12:06:16;;;;;;;2.35;1.17;;;16.60;84.20;;;;;;5054719;28;20291;-70
2022/12/25 12:08:42;;;;;;;2.70;1.15;;;16.60;84.80;;;;;;5055062;28;20045;-69
2022/12/25 12:11:22;;;;;;;3.72;1.20;;;16.80;83.70;;;;;;5056607;28;20068;-70
2022/12/25 12:13:47;;;;;;;3.00;1.30;;;17.00;83.90;;;;;;5050238;28;20036;-69
2022/12/25 12:16:13;;;;;;;7.20;1.30;;;17.20;82.70;;;;;;5055502;28;20036;-70
2022/12/25 12:18:40;;;;;;;2.38;1.13;;;17.20;83.10;;;;;;5052842;28;20040;-70
2022/12/25 12:21:28;;;;;;;2.67;1.20;;;17.10;83.50;;;;;;5055787;28;20025;-70
2022/12/25 12:24:09;;;;;;;2.67;1.17;;;17.10;83.70;;;;;;5052037;28;20053;-69
2022/12/25 12:26:39;;;;;;;3.08;1.10;;;17.20;83.10;;;;;;5053798;28;20033;-70
2022/12/25 12:29:07;;;;;;;2.75;1.10;;;17.20;83.30;;;;;;5054795;28;20057;-69
2022/12/25 12:31:48;;;;;;;2.92;1.00;;;17.20;82.40;;;;;;5054346;28;20029;-69
2022/12/25 12:34:25;;;;;;;3.83;1.40;;;17.30;82.20;;;;;;5036744;28;20090;-70
2022/12/25 12:37:00;;;;;;;4.05;1.52;;;17.30;83.20;;;;;;5053440;28;20071;-69
2022/12/25 12:39:35;;;;;;;2.38;1.00;;;17.20;82.30;;;;;;5056284;28;20039;-70
2022/12/25 12:42:01;;;;;;;3.47;1.40;;;17.20;81.60;;;;;;5052765;28;20120;-70
2022/12/25 12:44:33;;;;;;;3.28;1.10;;;17.20;82.30;;;;;;5054724;28;20025;-70
2022/12/25 12:46:59;;;;;;;2.03;0.95;;;17.40;81.40;;;;;;5055327;28;20127;-70
2022/12/25 12:49:31;;;;;;;2.08;1.00;;;17.60;81.00;;;;;;5052481;28;20500;-69
2022/12/25 12:52:36;;;;;;;1.95;0.93;;;17.60;81.10;;;;;;5054724;28;20107;-68
2022/12/25 12:55:06;;;;;;;2.90;1.02;;;17.60;80.50;;;;;;5025750;28;20046;-69
2022/12/25 12:57:38;;;;;;;2.08;0.90;;;17.50;80.80;;;;;;5054388;28;20040;-69
2022/12/25 13:00:05;;;;;;;1.90;0.80;;;17.30;80.70;;;;;;5071389;28;20045;-69
2022/12/25 13:02:52;;;;;;;1.38;0.90;;;17.50;80.90;;;;;;5070377;28;20028;-69
2022/12/25 13:05:46;;;;;;;1.90;0.88;;;17.30;80.80;;;;;;5065516;28;20033;-69
2022/12/25 13:08:52;;;;;;;3.17;0.90;;;17.30;80.20;;;;;;5076221;28;20025;-69
2022/12/25 13:11:20;;;;;;;1.33;0.75;;;17.30;80.90;;;;;;5072437;28;20313;-69
2022/12/25 13:13:48;;;;;;;1.55;0.75;;;17.20;80.60;;;;;;5075752;28;20025;-69
2022/12/25 13:16:23;;;;;;;2.25;0.80;;;17.20;80.90;;;;;;5074721;28;20024;-69
2022/12/25 13:18:52;;;;;;;1.77;0.90;;;17.30;81.20;;;;;;5074763;28;20020;-69
2022/12/25 13:21:22;;;;;;;2.42;1.08;;;17.00;80.90;;;;;;5065394;28;20090;-69
2022/12/25 13:23:54;;;;;;;2.50;0.80;;;16.60;81.80;;;;;;5050766;28;20029;-68
2022/12/25 13:26:19;;;;;;;1.60;0.90;;;16.50;83.00;;;;;;5068358;28;20038;-69
2022/12/25 13:28:46;;;;;;;2.47;0.80;;;16.40;83.60;;;;;;5066474;28;20074;-69
2022/12/25 13:31:24;;;;;;;2.63;0.80;;;16.30;83.30;;;;;;5062172;28;20487;-70
2022/12/25 13:34:16;;;;;;;4.05;0.93;;;16.10;83.50;;;;;;5068053;28;20024;-69
2022/12/25 13:36:42;;;;;;;1.52;0.80;;;16.00;84.30;;;;;;5038605;28;20384;-70
2022/12/25 13:39:15;;;;;;;1.98;0.90;;;16.10;84.00;;;;;;5061525;28;20056;-70
2022/12/25 13:42:04;;;;;;;2.58;1.00;;;16.10;84.80;;;;;;5065186;28;20029;-70
2022/12/25 13:44:36;;;;;;;1.95;1.10;;;16.20;84.00;;;;;;5060493;28;20139;-69
2022/12/25 13:47:30;;;;;;;1.95;0.93;;;16.10;84.00;;;;;;5072108;28;20052;-70
2022/12/25 13:49:57;;;;;;;;;;;16.10;84.20;;;;;;5066757;28;20067;-70
2022/12/25 13:52:31;;;;;;;2.40;0.90;;;15.80;84.50;;;;;;5048120;28;19908;-70
2022/12/25 13:55:14;;;;;;;2.40;1.10;;;15.50;82.20;;;;;;5066813;28;20028;-69
2022/12/25 13:57:52;;;;;;;3.28;0.90;;;15.60;81.10;;;;;;5068100;28;20460;-69
2022/12/25 14:00:30;;;;;;;1.67;0.80;;;15.70;79.90;;;;;;5044695;28;20049;-70
2022/12/25 14:02:57;;;;;;;1.83;0.90;;;15.60;79.70;;;;;;5047716;28;20056;-69
2022/12/25 14:05:29;;;;;;;2.42;0.98;;;15.60;80.30;;;;;;5047748;28;20078;-70
2022/12/25 14:08:06;;;;;;;1.40;0.90;;;15.50;81.80;;;;;;5049732;28;20029;-69
2022/12/25 14:10:36;;;;;;;1.88;0.95;;;15.50;81.00;;;;;;5037088;28;20060;-68
2022/12/25 14:13:10;;;;;;;1.70;0.90;;;15.40;80.60;;;;;;5050450;28;20444;-67
2022/12/25 14:15:38;;;;;;;2.20;0.80;;;15.30;82.60;;;;;;5050893;28;20033;-69
2022/12/25 14:18:06;;;;;;;3.13;0.93;;;15.20;83.20;;;;;;5050056;28;20029;-68
2022/12/25 14:20:52;;;;;;;1.92;0.88;;;15.10;81.00;;;;;;5048343;28;20054;-69
2022/12/25 14:23:18;;;;;;;2.17;1.10;;;15.00;81.90;;;;;;5052022;28;20119;-70
2022/12/25 14:25:45;;;;;;;2.40;1.00;;;14.90;83.40;;;;;;5051134;28;20096;-68
2022/12/25 14:28:31;;;;;;;2.60;0.90;;;14.80;84.60;;;;;;5045382;28;20021;-68
2022/12/25 14:31:04;;;;;;;1.73;0.90;;;14.70;83.30;;;;;;5050795;28;20295;-68
2022/12/25 14:33:37;;;;;;;3.38;1.00;;;14.60;83.90;;;;;;5047305;28;20322;-66
2022/12/25 14:36:03;;;;;;;3.38;1.00;;;14.50;84.30;;;;;;5050123;28;20049;-67
2022/12/25 14:38:33;;;;;;;2.13;0.90;;;14.40;84.00;;;;;;5045467;28;20353;-69
2022/12/25 14:41:17;;;;;;;1.77;0.80;;;14.40;83.70;;;;;;5035133;28;20025;-68
2022/12/25 14:43:54;;;;;;;1.92;0.80;;;14.40;83.50;;;;;;5041755;28;20037;-68
2022/12/25 14:46:29;;;;;;;1.65;0.80;;;14.50;83.00;;;;;;5044516;28;20056;-68
2022/12/25 14:49:04;;;;;;;1.45;0.77;;;14.50;83.30;;;;;;5053151;28;20035;-69
2022/12/25 14:51:31;;;;;;;1.90;0.90;;;14.50;81.90;;;;;;5037023;28;20029;-68
2022/12/25 14:54:01;;;;;;;1.88;0.90;;;14.40;81.90;;;;;;5053160;28;20033;-68